sensor_id;sensor_type;location;lat;lon;timestamp;pressure;altitude;pressure_sealevel;temperature;humidity
46394;BME280;32099;53.588;10.176;2023-07-13T00:00:17;100900.50;;;17.67;82.71
46394;BME280;32099;53.588;10.176;2023-07-13T00:02:43;100884.66;;;17.63;82.68
46394;BME280;32099;53.588;10.176;2023-07-13T00:05:09;100899.50;;;17.62;82.71
46394;BME280;32099;53.588;10.176;2023-07-13T00:07:35;100885.53;;;17.56;82.43
46394;BME280;32099;53.588;10.176;2023-07-13T00:10:01;100892.97;;;17.56;82.53
46394;BME280;32099;53.588;10.176;2023-07-13T00:12:29;100897.88;;;17.54;82.39
46394;BME280;32099;53.588;10.176;2023-07-13T00:15:01;100889.44;;;17.49;82.71
46394;BME280;32099;53.588;10.176;2023-07-13T00:17:30;100890.09;;;17.44;82.58
46394;BME280;32099;53.588;10.176;2023-07-13T00:19:55;100889.28;;;17.43;81.96
46394;BME280;32099;53.588;10.176;2023-07-13T00:22:22;100886.66;;;17.49;81.57
46394;BME280;32099;53.588;10.176;2023-07-13T00:24:50;100885.84;;;17.48;81.41
46394;BME280;32099;53.588;10.176;2023-07-13T00:27:16;100882.47;;;17.46;81.29
46394;BME280;32099;53.588;10.176;2023-07-13T00:29:43;100871.28;;;17.41;80.60
46394;BME280;32099;53.588;10.176;2023-07-13T00:32:08;100871.97;;;17.36;80.90
46394;BME280;32099;53.588;10.176;2023-07-13T00:34:34;100874.53;;;17.31;80.77
46394;BME280;32099;53.588;10.176;2023-07-13T00:37:00;100873.09;;;17.29;80.52
46394;BME280;32099;53.588;10.176;2023-07-13T00:39:25;100884.78;;;17.24;80.42
46394;BME280;32099;53.588;10.176;2023-07-13T00:41:51;100892.03;;;17.18;79.87
46394;BME280;32099;53.588;10.176;2023-07-13T00:44:16;100892.28;;;17.10;80.73
46394;BME280;32099;53.588;10.176;2023-07-13T00:46:43;100885.16;;;17.02;80.65
46394;BME280;32099;53.588;10.176;2023-07-13T00:49:09;100890.47;;;16.97;80.92
46394;BME280;32099;53.588;10.176;2023-07-13T00:51:40;100890.50;;;16.90;81.58
46394;BME280;32099;53.588;10.176;2023-07-13T00:54:11;100888.41;;;16.86;81.51
46394;BME280;32099;53.588;10.176;2023-07-13T00:56:40;100889.31;;;16.79;81.54
46394;BME280;32099;53.588;10.176;2023-07-13T00:59:08;100889.09;;;16.74;81.71
46394;BME280;32099;53.588;10.176;2023-07-13T01:01:36;100893.97;;;16.72;81.62
46394;BME280;32099;53.588;10.176;2023-07-13T01:04:02;100878.75;;;16.70;81.32
46394;BME280;32099;53.588;10.176;2023-07-13T01:06:27;100887.84;;;16.70;81.54
46394;BME280;32099;53.588;10.176;2023-07-13T01:08:53;100892.56;;;16.63;81.27
46394;BME280;32099;53.588;10.176;2023-07-13T01:11:21;100892.16;;;16.59;80.73
46394;BME280;32099;53.588;10.176;2023-07-13T01:13:49;100896.16;;;16.57;80.80
46394;BME280;32099;53.588;10.176;2023-07-13T01:16:18;100892.38;;;16.51;80.93
46394;BME280;32099;53.588;10.176;2023-07-13T01:18:49;100884.78;;;16.46;80.96
46394;BME280;32099;53.588;10.176;2023-07-13T01:21:14;100884.22;;;16.38;81.11
46394;BME280;32099;53.588;10.176;2023-07-13T01:23:39;100896.91;;;16.39;81.30
46394;BME280;32099;53.588;10.176;2023-07-13T01:26:04;100896.47;;;16.35;80.81
46394;BME280;32099;53.588;10.176;2023-07-13T01:28:30;100896.94;;;16.32;81.03
46394;BME280;32099;53.588;10.176;2023-07-13T01:30:56;100898.19;;;16.29;80.66
46394;BME280;32099;53.588;10.176;2023-07-13T01:33:23;100897.16;;;16.24;81.56
46394;BME280;32099;53.588;10.176;2023-07-13T01:35:49;100898.69;;;16.19;82.27
46394;BME280;32099;53.588;10.176;2023-07-13T01:38:15;100895.53;;;16.16;81.65
46394;BME280;32099;53.588;10.176;2023-07-13T01:40:42;100891.50;;;16.12;81.62
46394;BME280;32099;53.588;10.176;2023-07-13T01:43:08;100899.13;;;16.10;81.50
46394;BME280;32099;53.588;10.176;2023-07-13T01:45:33;100893.84;;;16.08;81.53
46394;BME280;32099;53.588;10.176;2023-07-13T01:47:59;100898.50;;;16.08;81.63
46394;BME280;32099;53.588;10.176;2023-07-13T01:50:24;100894.03;;;16.07;81.64
46394;BME280;32099;53.588;10.176;2023-07-13T01:52:50;100900.59;;;16.06;81.52
46394;BME280;32099;53.588;10.176;2023-07-13T01:55:16;100900.66;;;15.99;81.21
46394;BME280;32099;53.588;10.176;2023-07-13T01:57:41;100892.19;;;15.94;81.55
46394;BME280;32099;53.588;10.176;2023-07-13T02:00:08;100890.50;;;15.93;81.69
46394;BME280;32099;53.588;10.176;2023-07-13T02:02:34;100889.03;;;15.90;81.82
46394;BME280;32099;53.588;10.176;2023-07-13T02:04:59;100883.31;;;15.85;82.82
46394;BME280;32099;53.588;10.176;2023-07-13T02:07:25;100884.56;;;15.82;82.05
46394;BME280;32099;53.588;10.176;2023-07-13T02:09:50;100890.28;;;15.81;82.22
46394;BME280;32099;53.588;10.176;2023-07-13T02:12:15;100889.66;;;15.79;82.47
46394;BME280;32099;53.588;10.176;2023-07-13T02:14:40;100892.41;;;15.79;82.50
46394;BME280;32099;53.588;10.176;2023-07-13T02:17:06;100894.50;;;15.77;82.78
46394;BME280;32099;53.588;10.176;2023-07-13T02:19:31;100898.97;;;15.71;83.04
46394;BME280;32099;53.588;10.176;2023-07-13T02:21:56;100907.84;;;15.66;83.73
46394;BME280;32099;53.588;10.176;2023-07-13T02:24:22;100901.94;;;15.63;84.15
46394;BME280;32099;53.588;10.176;2023-07-13T02:26:47;100902.78;;;15.63;84.03
46394;BME280;32099;53.588;10.176;2023-07-13T02:29:13;100905.94;;;15.67;83.91
46394;BME280;32099;53.588;10.176;2023-07-13T02:31:38;100897.50;;;15.68;83.97
46394;BME280;32099;53.588;10.176;2023-07-13T02:34:04;100901.06;;;15.69;84.38
46394;BME280;32099;53.588;10.176;2023-07-13T02:36:30;100899.19;;;15.69;84.58
46394;BME280;32099;53.588;10.176;2023-07-13T02:38:57;100901.72;;;15.71;85.21
46394;BME280;32099;53.588;10.176;2023-07-13T02:41:26;100907.22;;;15.71;84.01
46394;BME280;32099;53.588;10.176;2023-07-13T02:43:51;100903.00;;;15.75;83.44
46394;BME280;32099;53.588;10.176;2023-07-13T02:46:17;100903.00;;;15.75;83.91
46394;BME280;32099;53.588;10.176;2023-07-13T02:48:44;100898.97;;;15.71;84.35
46394;BME280;32099;53.588;10.176;2023-07-13T02:51:09;100899.19;;;15.69;85.70
46394;BME280;32099;53.588;10.176;2023-07-13T02:53:35;100894.09;;;15.66;84.40
46394;BME280;32099;53.588;10.176;2023-07-13T02:56:00;100903.81;;;15.69;84.10
46394;BME280;32099;53.588;10.176;2023-07-13T02:58:26;100899.78;;;15.71;84.73
46394;BME280;32099;53.588;10.176;2023-07-13T03:00:51;100902.78;;;15.70;84.56
46394;BME280;32099;53.588;10.176;2023-07-13T03:03:17;100903.59;;;15.70;84.30
46394;BME280;32099;53.588;10.176;2023-07-13T03:05:43;100902.78;;;15.70;84.41
46394;BME280;32099;53.588;10.176;2023-07-13T03:08:10;100896.44;;;15.69;84.31
46394;BME280;32099;53.588;10.176;2023-07-13T03:10:36;100896.63;;;15.68;84.41
46394;BME280;32099;53.588;10.176;2023-07-13T03:13:02;100906.34;;;15.70;84.35
46394;BME280;32099;53.588;10.176;2023-07-13T03:15:27;100901.50;;;15.72;84.13
46394;BME280;32099;53.588;10.176;2023-07-13T03:17:53;100895.34;;;15.70;84.13
46394;BME280;32099;53.588;10.176;2023-07-13T03:20:18;100899.38;;;15.68;84.61
46394;BME280;32099;53.588;10.176;2023-07-13T03:22:44;100897.91;;;15.65;84.33
46394;BME280;32099;53.588;10.176;2023-07-13T03:25:10;100894.31;;;15.65;84.42
46394;BME280;32099;53.588;10.176;2023-07-13T03:27:35;100897.28;;;15.63;84.84
46394;BME280;32099;53.588;10.176;2023-07-13T03:30:01;100897.50;;;15.55;84.82
46394;BME280;32099;53.588;10.176;2023-07-13T03:32:27;100898.75;;;15.59;84.79
46394;BME280;32099;53.588;10.176;2023-07-13T03:34:52;100898.97;;;15.57;85.11
46394;BME280;32099;53.588;10.176;2023-07-13T03:37:18;100905.75;;;15.62;84.35
46394;BME280;32099;53.588;10.176;2023-07-13T03:39:43;100900.66;;;15.65;84.19
46394;BME280;32099;53.588;10.176;2023-07-13T03:42:08;100901.72;;;15.64;84.46
46394;BME280;32099;53.588;10.176;2023-07-13T03:44:34;100901.06;;;15.62;84.26
46394;BME280;32099;53.588;10.176;2023-07-13T03:47:00;100897.50;;;15.62;84.49
46394;BME280;32099;53.588;10.176;2023-07-13T03:49:25;100893.88;;;15.61;84.20
46394;BME280;32099;53.588;10.176;2023-07-13T03:51:51;100896.63;;;15.54;85.55
46394;BME280;32099;53.588;10.176;2023-07-13T03:54:16;100902.59;;;15.51;85.25
46394;BME280;32099;53.588;10.176;2023-07-13T03:56:41;100900.66;;;15.52;85.23
46394;BME280;32099;53.588;10.176;2023-07-13T03:59:07;100896.03;;;15.52;86.40
46394;BME280;32099;53.588;10.176;2023-07-13T04:01:32;100905.34;;;15.51;86.89
46394;BME280;32099;53.588;10.176;2023-07-13T04:03:57;100907.84;;;15.53;85.64
46394;BME280;32099;53.588;10.176;2023-07-13T04:06:26;100901.31;;;15.54;86.09
46394;BME280;32099;53.588;10.176;2023-07-13T04:08:53;100905.53;;;15.56;85.23
46394;BME280;32099;53.588;10.176;2023-07-13T04:11:22;100897.28;;;15.56;85.94
46394;BME280;32099;53.588;10.176;2023-07-13T04:13:49;100905.94;;;15.60;86.06
46394;BME280;32099;53.588;10.176;2023-07-13T04:16:15;100921.38;;;15.68;85.41
46394;BME280;32099;53.588;10.176;2023-07-13T04:18:41;100919.69;;;15.73;84.87
46394;BME280;32099;53.588;10.176;2023-07-13T04:21:07;100912.69;;;15.78;84.64
46394;BME280;32099;53.588;10.176;2023-07-13T04:23:34;100917.97;;;15.79;85.32
46394;BME280;32099;53.588;10.176;2023-07-13T04:26:00;100914.81;;;15.76;85.94
46394;BME280;32099;53.588;10.176;2023-07-13T04:28:25;100914.19;;;15.73;85.64
46394;BME280;32099;53.588;10.176;2023-07-13T04:30:52;100906.34;;;15.70;86.36
46394;BME280;32099;53.588;10.176;2023-07-13T04:33:17;100910.38;;;15.74;85.15
46394;BME280;32099;53.588;10.176;2023-07-13T04:35:43;100919.91;;;15.79;85.31
46394;BME280;32099;53.588;10.176;2023-07-13T04:38:10;100898.31;;;15.82;84.91
46394;BME280;32099;53.588;10.176;2023-07-13T04:40:36;100904.88;;;15.88;84.78
46394;BME280;32099;53.588;10.176;2023-07-13T04:43:02;100900.84;;;15.91;85.33
46394;BME280;32099;53.588;10.176;2023-07-13T04:45:27;100901.72;;;15.91;85.39
46394;BME280;32099;53.588;10.176;2023-07-13T04:47:53;100902.34;;;15.93;85.32
46394;BME280;32099;53.588;10.176;2023-07-13T04:50:18;100902.53;;;15.98;85.40
46394;BME280;32099;53.588;10.176;2023-07-13T04:52:47;100907.38;;;16.03;85.81
46394;BME280;32099;53.588;10.176;2023-07-13T04:55:14;100896.78;;;16.07;85.92
46394;BME280;32099;53.588;10.176;2023-07-13T04:57:39;100909.28;;;16.09;85.34
46394;BME280;32099;53.588;10.176;2023-07-13T05:00:05;100908.00;;;16.12;85.64
46394;BME280;32099;53.588;10.176;2023-07-13T05:02:31;100906.53;;;16.16;85.73
46394;BME280;32099;53.588;10.176;2023-07-13T05:04:58;100912.22;;;16.21;85.42
46394;BME280;32099;53.588;10.176;2023-07-13T05:07:24;100916.84;;;16.27;85.78
46394;BME280;32099;53.588;10.176;2023-07-13T05:09:50;100917.69;;;16.28;85.00
46394;BME280;32099;53.588;10.176;2023-07-13T05:12:15;100920.84;;;16.31;85.45
46394;BME280;32099;53.588;10.176;2023-07-13T05:14:41;100924.88;;;16.35;85.61
46394;BME280;32099;53.588;10.176;2023-07-13T05:17:06;100926.09;;;16.40;85.37
46394;BME280;32099;53.588;10.176;2023-07-13T05:19:31;100932.44;;;16.47;85.69
46394;BME280;32099;53.588;10.176;2023-07-13T05:21:57;100932.63;;;16.52;85.06
46394;BME280;32099;53.588;10.176;2023-07-13T05:24:22;100928.78;;;16.60;84.56
46394;BME280;32099;53.588;10.176;2023-07-13T05:26:48;100945.22;;;16.73;84.97
46394;BME280;32099;53.588;10.176;2023-07-13T05:29:13;100945.16;;;16.87;84.26
46394;BME280;32099;53.588;10.176;2023-07-13T05:31:38;100952.94;;;17.03;84.24
46394;BME280;32099;53.588;10.176;2023-07-13T05:34:04;100953.72;;;17.17;83.95
46394;BME280;32099;53.588;10.176;2023-07-13T05:36:30;100953.38;;;17.32;84.66
46394;BME280;32099;53.588;10.176;2023-07-13T05:38:55;100943.72;;;17.48;82.93
46394;BME280;32099;53.588;10.176;2023-07-13T05:41:21;100943.78;;;17.67;82.93
46394;BME280;32099;53.588;10.176;2023-07-13T05:43:46;100949.91;;;17.94;82.13
46394;BME280;32099;53.588;10.176;2023-07-13T05:46:11;100945.19;;;18.20;82.30
46394;BME280;32099;53.588;10.176;2023-07-13T05:48:37;100950.31;;;18.35;80.87
46394;BME280;32099;53.588;10.176;2023-07-13T05:51:02;100949.03;;;18.38;81.03
46394;BME280;32099;53.588;10.176;2023-07-13T05:53:27;100956.72;;;18.35;80.60
46394;BME280;32099;53.588;10.176;2023-07-13T05:55:53;100953.78;;;18.30;81.48
46394;BME280;32099;53.588;10.176;2023-07-13T05:58:19;100956.47;;;18.37;81.55
46394;BME280;32099;53.588;10.176;2023-07-13T06:00:48;100954.56;;;18.38;80.72
46394;BME280;32099;53.588;10.176;2023-07-13T06:03:24;100958.09;;;18.26;80.72
46394;BME280;32099;53.588;10.176;2023-07-13T06:05:49;100956.47;;;18.18;80.77
46394;BME280;32099;53.588;10.176;2023-07-13T06:08:15;100960.53;;;18.16;80.97
46394;BME280;32099;53.588;10.176;2023-07-13T06:10:40;100962.69;;;18.14;81.29
46394;BME280;32099;53.588;10.176;2023-07-13T06:13:05;100961.13;;;18.18;80.81
46394;BME280;32099;53.588;10.176;2023-07-13T06:15:30;100961.47;;;18.28;81.82
46394;BME280;32099;53.588;10.176;2023-07-13T06:17:56;100968.13;;;18.39;80.43
46394;BME280;32099;53.588;10.176;2023-07-13T06:20:21;100958.31;;;18.43;80.12
46394;BME280;32099;53.588;10.176;2023-07-13T06:22:46;100959.00;;;18.57;80.21
46394;BME280;32099;53.588;10.176;2023-07-13T06:25:12;100962.06;;;18.68;79.91
46394;BME280;32099;53.588;10.176;2023-07-13T06:27:37;100966.97;;;18.65;78.89
46394;BME280;32099;53.588;10.176;2023-07-13T06:30:02;100969.97;;;18.64;79.69
46394;BME280;32099;53.588;10.176;2023-07-13T06:32:28;100964.81;;;18.68;78.77
46394;BME280;32099;53.588;10.176;2023-07-13T06:34:53;100965.59;;;18.75;80.01
46394;BME280;32099;53.588;10.176;2023-07-13T06:37:18;100969.34;;;18.80;79.95
46394;BME280;32099;53.588;10.176;2023-07-13T06:39:44;100972.69;;;18.83;78.22
46394;BME280;32099;53.588;10.176;2023-07-13T06:42:09;100976.31;;;18.83;78.89
46394;BME280;32099;53.588;10.176;2023-07-13T06:44:34;100980.06;;;18.89;79.74
46394;BME280;32099;53.588;10.176;2023-07-13T06:47:00;100982.78;;;18.95;78.46
46394;BME280;32099;53.588;10.176;2023-07-13T06:49:25;100978.44;;;19.00;78.51
46394;BME280;32099;53.588;10.176;2023-07-13T06:51:50;100982.28;;;18.99;76.93
46394;BME280;32099;53.588;10.176;2023-07-13T06:54:18;100990.19;;;18.95;76.89
46394;BME280;32099;53.588;10.176;2023-07-13T06:56:43;100982.56;;;18.90;76.31
46394;BME280;32099;53.588;10.176;2023-07-13T06:59:09;100989.13;;;18.96;78.80
46394;BME280;32099;53.588;10.176;2023-07-13T07:01:34;100989.03;;;19.03;77.84
46394;BME280;32099;53.588;10.176;2023-07-13T07:03:59;100990.19;;;19.14;78.82
46394;BME280;32099;53.588;10.176;2023-07-13T07:06:25;100981.53;;;19.22;77.02
46394;BME280;32099;53.588;10.176;2023-07-13T07:08:50;100985.28;;;19.27;77.10
46394;BME280;32099;53.588;10.176;2023-07-13T07:11:18;100982.63;;;19.33;76.87
46394;BME280;32099;53.588;10.176;2023-07-13T07:13:48;100995.78;;;19.37;77.30
46394;BME280;32099;53.588;10.176;2023-07-13T07:16:14;100986.16;;;19.40;75.23
46394;BME280;32099;53.588;10.176;2023-07-13T07:18:40;100985.81;;;19.36;74.34
46394;BME280;32099;53.588;10.176;2023-07-13T07:21:06;100987.59;;;19.42;75.99
46394;BME280;32099;53.588;10.176;2023-07-13T07:23:31;100988.22;;;19.45;75.53
46394;BME280;32099;53.588;10.176;2023-07-13T07:25:56;100986.44;;;19.50;75.21
46394;BME280;32099;53.588;10.176;2023-07-13T07:28:22;100983.56;;;19.57;76.33
46394;BME280;32099;53.588;10.176;2023-07-13T07:30:47;100987.41;;;19.68;74.26
46394;BME280;32099;53.588;10.176;2023-07-13T07:33:13;100992.72;;;19.81;73.35
46394;BME280;32099;53.588;10.176;2023-07-13T07:35:39;100986.53;;;19.98;72.33
46394;BME280;32099;53.588;10.176;2023-07-13T07:38:05;100990.97;;;20.11;72.58
46394;BME280;32099;53.588;10.176;2023-07-13T07:40:30;100995.03;;;20.20;72.43
46394;BME280;32099;53.588;10.176;2023-07-13T07:42:56;101002.28;;;20.33;71.55
46394;BME280;32099;53.588;10.176;2023-07-13T07:45:21;100991.69;;;20.42;72.05
46394;BME280;32099;53.588;10.176;2023-07-13T07:47:46;100994.81;;;20.45;72.29
46394;BME280;32099;53.588;10.176;2023-07-13T07:50:12;100994.16;;;20.55;70.30
46394;BME280;32099;53.588;10.176;2023-07-13T07:52:37;101002.09;;;20.75;71.07
46394;BME280;32099;53.588;10.176;2023-07-13T07:55:04;100995.88;;;20.97;71.59
46394;BME280;32099;53.588;10.176;2023-07-13T07:57:30;100996.41;;;21.11;71.43
46394;BME280;32099;53.588;10.176;2023-07-13T07:59:56;101000.59;;;21.25;69.56
46394;BME280;32099;53.588;10.176;2023-07-13T08:02:21;100990.00;;;21.22;67.86
46394;BME280;32099;53.588;10.176;2023-07-13T08:04:46;100994.31;;;21.01;68.90
46394;BME280;32099;53.588;10.176;2023-07-13T08:07:11;101001.72;;;20.84;71.10
46394;BME280;32099;53.588;10.176;2023-07-13T08:09:37;100999.88;;;20.89;71.54
46394;BME280;32099;53.588;10.176;2023-07-13T08:12:02;100994.75;;;20.81;68.95
46394;BME280;32099;53.588;10.176;2023-07-13T08:14:28;100995.22;;;20.66;70.41
46394;BME280;32099;53.588;10.176;2023-07-13T08:16:53;100989.44;;;20.68;71.35
46394;BME280;32099;53.588;10.176;2023-07-13T08:19:18;100980.47;;;20.89;70.58
46394;BME280;32099;53.588;10.176;2023-07-13T08:21:44;100984.34;;;21.17;70.71
46394;BME280;32099;53.588;10.176;2023-07-13T08:24:09;100989.03;;;21.46;70.23
46394;BME280;32099;53.588;10.176;2023-07-13T08:26:34;100987.97;;;21.64;68.04
46394;BME280;32099;53.588;10.176;2023-07-13T08:31:25;100996.84;;;21.49;68.76
46394;BME280;32099;53.588;10.176;2023-07-13T08:33:51;100988.53;;;21.49;69.93
46394;BME280;32099;53.588;10.176;2023-07-13T08:36:16;100996.00;;;21.48;69.58
46394;BME280;32099;53.588;10.176;2023-07-13T08:38:41;100985.88;;;21.71;68.82
46394;BME280;32099;53.588;10.176;2023-07-13T08:41:11;100995.63;;;22.08;67.32
46394;BME280;32099;53.588;10.176;2023-07-13T08:43:39;100992.44;;;22.38;66.53
46394;BME280;32099;53.588;10.176;2023-07-13T08:48:49;100998.56;;;22.79;64.38
46394;BME280;32099;53.588;10.176;2023-07-13T08:51:24;101002.88;;;22.92;65.26
46394;BME280;32099;53.588;10.176;2023-07-13T08:54:07;100996.72;;;22.90;63.17
46394;BME280;32099;53.588;10.176;2023-07-13T08:56:45;100994.38;;;22.77;63.96
46394;BME280;32099;53.588;10.176;2023-07-13T08:59:13;100991.72;;;22.87;62.15
46394;BME280;32099;53.588;10.176;2023-07-13T09:04:28;100988.97;;;23.42;62.61
46394;BME280;32099;53.588;10.176;2023-07-13T09:09:58;100993.69;;;23.69;60.52
46394;BME280;32099;53.588;10.176;2023-07-13T09:12:33;100997.22;;;23.64;63.05
46394;BME280;32099;53.588;10.176;2023-07-13T09:18:01;100998.03;;;23.60;61.05
46394;BME280;32099;53.588;10.176;2023-07-13T09:20:35;101002.59;;;23.16;62.36
46394;BME280;32099;53.588;10.176;2023-07-13T09:23:09;101005.03;;;22.85;62.39
46394;BME280;32099;53.588;10.176;2023-07-13T09:25:39;101003.78;;;22.54;62.76
46394;BME280;32099;53.588;10.176;2023-07-13T09:28:18;101004.13;;;22.40;63.98
46394;BME280;32099;53.588;10.176;2023-07-13T09:31:04;100997.47;;;22.80;62.47
46394;BME280;32099;53.588;10.176;2023-07-13T09:33:33;101004.50;;;23.38;60.92
46394;BME280;32099;53.588;10.176;2023-07-13T09:36:00;101005.91;;;23.68;60.38
46394;BME280;32099;53.588;10.176;2023-07-13T09:38:27;100996.56;;;23.84;60.31
46394;BME280;32099;53.588;10.176;2023-07-13T09:43:33;101000.63;;;23.99;60.04
46394;BME280;32099;53.588;10.176;2023-07-13T09:45:59;101005.03;;;24.32;58.31
46394;BME280;32099;53.588;10.176;2023-07-13T09:48:25;100998.19;;;24.61;56.88
46394;BME280;32099;53.588;10.176;2023-07-13T09:51:01;100991.94;;;24.97;58.04
46394;BME280;32099;53.588;10.176;2023-07-13T09:53:38;101000.38;;;25.27;52.52
46394;BME280;32099;53.588;10.176;2023-07-13T09:56:11;101009.88;;;25.32;54.66
46394;BME280;32099;53.588;10.176;2023-07-13T09:58:44;101002.28;;;25.01;54.26
46394;BME280;32099;53.588;10.176;2023-07-13T10:01:09;101004.81;;;25.08;56.30
46394;BME280;32099;53.588;10.176;2023-07-13T10:03:35;101007.06;;;25.11;54.91
46394;BME280;32099;53.588;10.176;2023-07-13T10:06:16;101006.41;;;24.83;52.77
46394;BME280;32099;53.588;10.176;2023-07-13T10:08:44;101009.53;;;24.44;56.50
46394;BME280;32099;53.588;10.176;2023-07-13T10:11:11;101002.09;;;24.12;57.09
46394;BME280;32099;53.588;10.176;2023-07-13T10:16:20;101006.75;;;23.68;58.64
46394;BME280;32099;53.588;10.176;2023-07-13T10:18:50;101012.28;;;23.63;59.38
46394;BME280;32099;53.588;10.176;2023-07-13T10:21:21;101009.75;;;23.62;60.31
46394;BME280;32099;53.588;10.176;2023-07-13T10:24:35;100997.00;;;23.66;59.74
46394;BME280;32099;53.588;10.176;2023-07-13T10:26:42;100988.94;;;23.69;56.64
46394;BME280;32099;53.588;10.176;2023-07-13T10:29:14;100996.84;;;23.50;57.73
46394;BME280;32099;53.588;10.176;2023-07-13T10:31:40;101005.38;;;23.38;57.49
46394;BME280;32099;53.588;10.176;2023-07-13T10:34:09;100996.66;;;23.30;59.23
46394;BME280;32099;53.588;10.176;2023-07-13T10:36:43;100997.34;;;23.47;58.20
46394;BME280;32099;53.588;10.176;2023-07-13T10:39:13;100996.19;;;23.70;57.88
46394;BME280;32099;53.588;10.176;2023-07-13T10:41:42;100990.41;;;23.77;56.47
46394;BME280;32099;53.588;10.176;2023-07-13T10:44:33;100983.22;;;23.86;50.74
46394;BME280;32099;53.588;10.176;2023-07-13T10:46:59;100993.97;;;24.05;53.48
46394;BME280;32099;53.588;10.176;2023-07-13T10:49:39;100991.63;;;24.29;53.14
46394;BME280;32099;53.588;10.176;2023-07-13T10:58:13;100983.44;;;24.65;53.41
46394;BME280;32099;53.588;10.176;2023-07-13T11:00:44;100986.47;;;24.59;52.85
46394;BME280;32099;53.588;10.176;2023-07-13T11:03:14;100990.94;;;24.65;53.77
46394;BME280;32099;53.588;10.176;2023-07-13T11:05:43;100995.38;;;24.56;49.90
46394;BME280;32099;53.588;10.176;2023-07-13T11:10:57;100995.13;;;24.62;52.56
46394;BME280;32099;53.588;10.176;2023-07-13T11:21:30;100985.81;;;25.05;50.62
46394;BME280;32099;53.588;10.176;2023-07-13T11:31:37;100993.19;;;25.68;49.98
46394;BME280;32099;53.588;10.176;2023-07-13T11:34:06;100990.13;;;25.75;49.25
46394;BME280;32099;53.588;10.176;2023-07-13T11:36:39;101002.41;;;25.74;48.61
46394;BME280;32099;53.588;10.176;2023-07-13T11:39:14;101003.53;;;25.83;48.48
46394;BME280;32099;53.588;10.176;2023-07-13T11:41:44;101001.84;;;25.82;45.38
46394;BME280;32099;53.588;10.176;2023-07-13T11:44:22;100998.22;;;25.86;50.02
46394;BME280;32099;53.588;10.176;2023-07-13T11:46:50;101002.09;;;26.06;45.74
46394;BME280;32099;53.588;10.176;2023-07-13T11:49:18;100984.81;;;25.88;49.53
46394;BME280;32099;53.588;10.176;2023-07-13T11:51:44;100997.66;;;25.74;48.68
46394;BME280;32099;53.588;10.176;2023-07-13T11:54:23;101002.97;;;25.65;49.64
46394;BME280;32099;53.588;10.176;2023-07-13T11:56:48;100997.94;;;25.52;49.04
46394;BME280;32099;53.588;10.176;2023-07-13T11:59:14;100994.22;;;25.25;49.22
46394;BME280;32099;53.588;10.176;2023-07-13T12:01:43;101010.41;;;25.13;49.65
46394;BME280;32099;53.588;10.176;2023-07-13T12:04:19;101011.50;;;25.02;50.95
46394;BME280;32099;53.588;10.176;2023-07-13T12:06:47;101009.22;;;24.93;48.95
46394;BME280;32099;53.588;10.176;2023-07-13T12:09:19;101005.56;;;24.88;50.90
46394;BME280;32099;53.588;10.176;2023-07-13T12:11:50;100995.84;;;24.90;51.02
46394;BME280;32099;53.588;10.176;2023-07-13T12:14:16;100996.63;;;24.86;48.05
46394;BME280;32099;53.588;10.176;2023-07-13T12:16:43;101005.47;;;24.67;49.20
46394;BME280;32099;53.588;10.176;2023-07-13T12:19:20;101015.13;;;24.44;51.71
46394;BME280;32099;53.588;10.176;2023-07-13T12:21:48;101018.63;;;24.29;51.20
46394;BME280;32099;53.588;10.176;2023-07-13T12:24:16;101024.41;;;24.17;48.96
46394;BME280;32099;53.588;10.176;2023-07-13T12:26:43;101036.28;;;24.02;53.72
46394;BME280;32099;53.588;10.176;2023-07-13T12:29:11;101053.34;;;23.83;52.16
46394;BME280;32099;53.588;10.176;2023-07-13T12:31:42;101088.09;;;23.48;52.53
46394;BME280;32099;53.588;10.176;2023-07-13T12:34:14;101134.31;;;22.88;56.40
46394;BME280;32099;53.588;10.176;2023-07-13T12:41:50;101164.19;;;19.39;82.39
46394;BME280;32099;53.588;10.176;2023-07-13T12:44:18;101162.16;;;18.72;83.66
46394;BME280;32099;53.588;10.176;2023-07-13T12:46:57;101149.81;;;18.24;86.34
46394;BME280;32099;53.588;10.176;2023-07-13T12:49:26;101147.63;;;18.07;87.18
46394;BME280;32099;53.588;10.176;2023-07-13T12:51:57;101155.69;;;18.02;87.94
46394;BME280;32099;53.588;10.176;2023-07-13T12:54:24;101155.91;;;18.07;87.24
46394;BME280;32099;53.588;10.176;2023-07-13T12:56:50;101151.28;;;18.26;87.52
46394;BME280;32099;53.588;10.176;2023-07-13T12:59:18;101148.13;;;18.48;85.61
46394;BME280;32099;53.588;10.176;2023-07-13T13:01:47;101151.56;;;18.69;87.27
46394;BME280;32099;53.588;10.176;2023-07-13T13:04:14;101157.94;;;18.88;86.90
46394;BME280;32099;53.588;10.176;2023-07-13T13:06:40;101145.72;;;19.02;84.79
46394;BME280;32099;53.588;10.176;2023-07-13T13:09:09;101155.22;;;19.06;82.80
46394;BME280;32099;53.588;10.176;2023-07-13T13:11:38;101152.06;;;19.03;83.13
46394;BME280;32099;53.588;10.176;2023-07-13T13:14:04;101154.84;;;19.03;83.38
46394;BME280;32099;53.588;10.176;2023-07-13T13:16:34;101167.50;;;19.10;83.79
46394;BME280;32099;53.588;10.176;2023-07-13T13:21:42;101183.25;;;19.29;82.01
46394;BME280;32099;53.588;10.176;2023-07-13T13:24:13;101180.19;;;19.18;80.45
46394;BME280;32099;53.588;10.176;2023-07-13T13:26:40;101173.66;;;19.13;81.89
46394;BME280;32099;53.588;10.176;2023-07-13T13:29:11;101173.19;;;19.16;81.94
46394;BME280;32099;53.588;10.176;2023-07-13T13:31:39;101171.50;;;19.33;82.10